sensor_id;sensor_type;location;lat;lon;timestamp;pressure;altitude;pressure_sealevel;temperature
15144;BMP180;7672;50.834;6.286;2022-08-25T00:00:04;99817.34;;;25.45
15144;BMP180;7672;50.834;6.286;2022-08-25T00:02:31;99817.56;;;25.41
15144;BMP180;7672;50.834;6.286;2022-08-25T00:04:59;99820.34;;;25.38
15144;BMP180;7672;50.834;6.286;2022-08-25T00:07:28;99822.91;;;25.38
15144;BMP180;7672;50.834;6.286;2022-08-25T00:09:55;99821.41;;;25.34
15144;BMP180;7672;50.834;6.286;2022-08-25T00:12:22;99822.34;;;25.33
15144;BMP180;7672;50.834;6.286;2022-08-25T00:14:49;99817.34;;;25.30
15144;BMP180;7672;50.834;6.286;2022-08-25T00:17:16;99822.50;;;25.30
15144;BMP180;7672;50.834;6.286;2022-08-25T00:19:43;99822.56;;;25.28
15144;BMP180;7672;50.834;6.286;2022-08-25T00:22:10;99817.56;;;25.25
15144;BMP180;7672;50.834;6.286;2022-08-25T00:24:37;99815.06;;;25.24
15144;BMP180;7672;50.834;6.286;2022-08-25T00:27:04;99823.91;;;25.20
15144;BMP180;7672;50.834;6.286;2022-08-25T00:29:32;99823.22;;;25.16
15144;BMP180;7672;50.834;6.286;2022-08-25T00:31:59;99818.97;;;25.15
15144;BMP180;7672;50.834;6.286;2022-08-25T00:34:35;99813.28;;;25.09
15144;BMP180;7672;50.834;6.286;2022-08-25T00:37:06;99816.09;;;25.04
15144;BMP180;7672;50.834;6.286;2022-08-25T00:39:36;99826.44;;;25.04
15144;BMP180;7672;50.834;6.286;2022-08-25T00:42:05;99827.34;;;25.03
15144;BMP180;7672;50.834;6.286;2022-08-25T00:44:42;99821.50;;;25.00
15144;BMP180;7672;50.834;6.286;2022-08-25T00:47:09;99822.41;;;24.99
15144;BMP180;7672;50.834;6.286;2022-08-25T00:49:45;99828.44;;;24.99
15144;BMP180;7672;50.834;6.286;2022-08-25T00:52:27;99824.25;;;24.97
15144;BMP180;7672;50.834;6.286;2022-08-25T00:55:03;99823.38;;;24.96
15144;BMP180;7672;50.834;6.286;2022-08-25T00:57:40;99830.16;;;24.99
15144;BMP180;7672;50.834;6.286;2022-08-25T01:00:20;99825.94;;;24.98
15144;BMP180;7672;50.834;6.286;2022-08-25T01:02:48;99825.97;;;24.96
15144;BMP180;7672;50.834;6.286;2022-08-25T01:05:17;99825.16;;;24.96
15144;BMP180;7672;50.834;6.286;2022-08-25T01:07:45;99826.91;;;24.95
15144;BMP180;7672;50.834;6.286;2022-08-25T01:10:13;99821.78;;;24.94
15144;BMP180;7672;50.834;6.286;2022-08-25T01:12:40;99821.78;;;24.94
15144;BMP180;7672;50.834;6.286;2022-08-25T01:15:10;99816.72;;;24.92
15144;BMP180;7672;50.834;6.286;2022-08-25T01:17:52;99818.47;;;24.92
15144;BMP180;7672;50.834;6.286;2022-08-25T01:20:25;99818.56;;;24.91
15144;BMP180;7672;50.834;6.286;2022-08-25T01:22:57;99815.13;;;24.90
15144;BMP180;7672;50.834;6.286;2022-08-25T01:28:05;99816.44;;;24.82
15144;BMP180;7672;50.834;6.286;2022-08-25T01:30:33;99820.03;;;24.79
15144;BMP180;7672;50.834;6.286;2022-08-25T01:33:07;99822.00;;;24.74
15144;BMP180;7672;50.834;6.286;2022-08-25T01:35:35;99818.97;;;24.66
15144;BMP180;7672;50.834;6.286;2022-08-25T01:38:04;99825.19;;;24.62
15144;BMP180;7672;50.834;6.286;2022-08-25T01:40:34;99822.25;;;24.53
15144;BMP180;7672;50.834;6.286;2022-08-25T01:45:42;99821.38;;;24.35
15144;BMP180;7672;50.834;6.286;2022-08-25T01:48:13;99827.69;;;24.30
15144;BMP180;7672;50.834;6.286;2022-08-25T01:50:42;99823.00;;;24.21
15144;BMP180;7672;50.834;6.286;2022-08-25T01:53:22;99825.84;;;24.15
15144;BMP180;7672;50.834;6.286;2022-08-25T01:55:49;99820.16;;;24.09
15144;BMP180;7672;50.834;6.286;2022-08-25T01:58:24;99823.03;;;24.03
15144;BMP180;7672;50.834;6.286;2022-08-25T02:00:54;99832.00;;;23.96
15144;BMP180;7672;50.834;6.286;2022-08-25T02:03:24;99833.88;;;23.92
15144;BMP180;7672;50.834;6.286;2022-08-25T02:05:52;99841.81;;;23.88
15144;BMP180;7672;50.834;6.286;2022-08-25T02:08:20;99838.63;;;23.83
15144;BMP180;7672;50.834;6.286;2022-08-25T02:10:51;99831.84;;;23.80
15144;BMP180;7672;50.834;6.286;2022-08-25T02:13:19;99832.91;;;23.76
15144;BMP180;7672;50.834;6.286;2022-08-25T02:15:55;99840.72;;;23.75
15144;BMP180;7672;50.834;6.286;2022-08-25T02:18:23;99834.03;;;23.71
15144;BMP180;7672;50.834;6.286;2022-08-25T02:20:50;99830.66;;;23.69
15144;BMP180;7672;50.834;6.286;2022-08-25T02:23:17;99826.53;;;23.65
15144;BMP180;7672;50.834;6.286;2022-08-25T02:25:44;99829.13;;;23.65
15144;BMP180;7672;50.834;6.286;2022-08-25T02:28:11;99818.13;;;23.62
15144;BMP180;7672;50.834;6.286;2022-08-25T02:30:40;99818.25;;;23.59
15144;BMP180;7672;50.834;6.286;2022-08-25T02:33:08;99819.22;;;23.56
15144;BMP180;7672;50.834;6.286;2022-08-25T02:35:37;99819.38;;;23.53
15144;BMP180;7672;50.834;6.286;2022-08-25T02:38:04;99813.38;;;23.53
15144;BMP180;7672;50.834;6.286;2022-08-25T02:40:32;99813.53;;;23.50
15144;BMP180;7672;50.834;6.286;2022-08-25T02:42:59;99809.34;;;23.47
15144;BMP180;7672;50.834;6.286;2022-08-25T02:45:26;99807.72;;;23.45
15144;BMP180;7672;50.834;6.286;2022-08-25T02:47:53;99811.38;;;23.41
15144;BMP180;7672;50.834;6.286;2022-08-25T02:50:20;99807.03;;;23.41
15144;BMP180;7672;50.834;6.286;2022-08-25T02:52:47;99797.75;;;23.37
15144;BMP180;7672;50.834;6.286;2022-08-25T02:55:16;99796.25;;;23.33
15144;BMP180;7672;50.834;6.286;2022-08-25T02:57:43;99798.06;;;23.31
15144;BMP180;7672;50.834;6.286;2022-08-25T03:00:13;99798.06;;;23.31
15144;BMP180;7672;50.834;6.286;2022-08-25T03:02:42;99793.88;;;23.29
15144;BMP180;7672;50.834;6.286;2022-08-25T03:05:11;99793.03;;;23.28
15144;BMP180;7672;50.834;6.286;2022-08-25T03:07:38;99797.44;;;23.26
15144;BMP180;7672;50.834;6.286;2022-08-25T03:10:10;99793.03;;;23.28
15144;BMP180;7672;50.834;6.286;2022-08-25T03:12:39;99789.63;;;23.28
15144;BMP180;7672;50.834;6.286;2022-08-25T03:15:13;99783.56;;;23.29
15144;BMP180;7672;50.834;6.286;2022-08-25T03:17:44;99786.19;;;23.27
15144;BMP180;7672;50.834;6.286;2022-08-25T03:20:12;99783.63;;;23.27
15144;BMP180;7672;50.834;6.286;2022-08-25T03:22:39;99788.78;;;23.27
15144;BMP180;7672;50.834;6.286;2022-08-25T03:25:07;99778.47;;;23.27
15144;BMP180;7672;50.834;6.286;2022-08-25T03:27:52;99780.38;;;23.24
15144;BMP180;7672;50.834;6.286;2022-08-25T03:30:19;99779.50;;;23.23
15144;BMP180;7672;50.834;6.286;2022-08-25T03:32:47;99781.34;;;23.21
15144;BMP180;7672;50.834;6.286;2022-08-25T03:35:14;99780.47;;;23.21
15144;BMP180;7672;50.834;6.286;2022-08-25T03:37:41;99769.50;;;23.17
15144;BMP180;7672;50.834;6.286;2022-08-25T03:40:12;99764.34;;;23.17
15144;BMP180;7672;50.834;6.286;2022-08-25T03:42:44;99754.22;;;23.13
15144;BMP180;7672;50.834;6.286;2022-08-25T03:45:14;99760.06;;;23.16
15144;BMP180;7672;50.834;6.286;2022-08-25T03:47:48;99755.97;;;23.12
15144;BMP180;7672;50.834;6.286;2022-08-25T03:50:17;99761.13;;;23.12
15144;BMP180;7672;50.834;6.286;2022-08-25T03:52:53;99753.47;;;23.11
15144;BMP180;7672;50.834;6.286;2022-08-25T03:55:23;99760.34;;;23.10
15144;BMP180;7672;50.834;6.286;2022-08-25T03:57:52;99760.44;;;23.09
15144;BMP180;7672;50.834;6.286;2022-08-25T04:00:22;99763.81;;;23.09
15144;BMP180;7672;50.834;6.286;2022-08-25T04:02:48;99759.59;;;23.08
15144;BMP180;7672;50.834;6.286;2022-08-25T04:05:15;99753.59;;;23.08
15144;BMP180;7672;50.834;6.286;2022-08-25T04:07:42;99757.75;;;23.10
15144;BMP180;7672;50.834;6.286;2022-08-25T04:10:10;99752.53;;;23.12
15144;BMP180;7672;50.834;6.286;2022-08-25T04:12:38;99749.22;;;23.10
15144;BMP180;7672;50.834;6.286;2022-08-25T04:15:07;99754.28;;;23.11
15144;BMP180;7672;50.834;6.286;2022-08-25T04:17:38;99754.44;;;23.08
15144;BMP180;7672;50.834;6.286;2022-08-25T04:20:09;99754.44;;;23.08
15144;BMP180;7672;50.834;6.286;2022-08-25T04:22:39;99765.66;;;23.07
15144;BMP180;7672;50.834;6.286;2022-08-25T04:25:11;99759.59;;;23.08
15144;BMP180;7672;50.834;6.286;2022-08-25T04:27:38;99764.78;;;23.07
15144;BMP180;7672;50.834;6.286;2022-08-25T04:30:06;99763.16;;;23.06
15144;BMP180;7672;50.834;6.286;2022-08-25T04:32:35;99759.72;;;23.05
15144;BMP180;7672;50.834;6.286;2022-08-25T04:35:03;99756.38;;;23.03
15144;BMP180;7672;50.834;6.286;2022-08-25T04:37:31;99756.38;;;23.03
15144;BMP180;7672;50.834;6.286;2022-08-25T04:39:59;99758.19;;;23.02
15144;BMP180;7672;50.834;6.286;2022-08-25T04:42:26;99754.78;;;23.01
15144;BMP180;7672;50.834;6.286;2022-08-25T04:44:53;99744.50;;;23.00
15144;BMP180;7672;50.834;6.286;2022-08-25T04:47:21;99737.69;;;22.99
15144;BMP180;7672;50.834;6.286;2022-08-25T04:49:48;99742.94;;;22.96
15144;BMP180;7672;50.834;6.286;2022-08-25T04:52:15;99747.34;;;22.94
15144;BMP180;7672;50.834;6.286;2022-08-25T04:54:42;99747.44;;;22.92
15144;BMP180;7672;50.834;6.286;2022-08-25T04:57:09;99747.63;;;22.88
15144;BMP180;7672;50.834;6.286;2022-08-25T04:59:37;99740.69;;;22.90
15144;BMP180;7672;50.834;6.286;2022-08-25T05:02:04;99732.00;;;22.91
15144;BMP180;7672;50.834;6.286;2022-08-25T05:04:35;99739.75;;;22.91
15144;BMP180;7672;50.834;6.286;2022-08-25T05:07:03;99730.22;;;22.93
15144;BMP180;7672;50.834;6.286;2022-08-25T05:09:31;99724.97;;;22.94
15144;BMP180;7672;50.834;6.286;2022-08-25T05:12:00;99729.09;;;22.98
15144;BMP180;7672;50.834;6.286;2022-08-25T05:14:29;99731.63;;;23.00
15144;BMP180;7672;50.834;6.286;2022-08-25T05:16:57;99728.78;;;23.05
15144;BMP180;7672;50.834;6.286;2022-08-25T05:19:25;99723.50;;;23.08
15144;BMP180;7672;50.834;6.286;2022-08-25T05:21:56;99719.88;;;23.12
15144;BMP180;7672;50.834;6.286;2022-08-25T05:24:24;99728.00;;;23.22
15144;BMP180;7672;50.834;6.286;2022-08-25T05:26:53;99725.22;;;23.26
15144;BMP180;7672;50.834;6.286;2022-08-25T05:29:19;99729.06;;;23.36
15144;BMP180;7672;50.834;6.286;2022-08-25T05:31:47;99725.25;;;23.43
15144;BMP180;7672;50.834;6.286;2022-08-25T05:34:18;99726.22;;;23.59
15144;BMP180;7672;50.834;6.286;2022-08-25T05:36:46;99725.66;;;23.71
15144;BMP180;7672;50.834;6.286;2022-08-25T05:39:13;99724.22;;;23.82
15144;BMP180;7672;50.834;6.286;2022-08-25T05:41:40;99732.75;;;24.01
15144;BMP180;7672;50.834;6.286;2022-08-25T05:44:07;99736.06;;;24.20
15144;BMP180;7672;50.834;6.286;2022-08-25T05:46:35;99728.25;;;24.38
15144;BMP180;7672;50.834;6.286;2022-08-25T05:49:02;99723.06;;;24.55
15144;BMP180;7672;50.834;6.286;2022-08-25T05:51:29;99722.78;;;24.77
15144;BMP180;7672;50.834;6.286;2022-08-25T05:53:56;99720.03;;;24.95
15144;BMP180;7672;50.834;6.286;2022-08-25T05:56:22;99725.94;;;25.14
15144;BMP180;7672;50.834;6.286;2022-08-25T05:58:49;99729.94;;;25.35
15144;BMP180;7672;50.834;6.286;2022-08-25T06:01:24;99725.50;;;25.52
15144;BMP180;7672;50.834;6.286;2022-08-25T06:04:12;99723.47;;;25.72
15144;BMP180;7672;50.834;6.286;2022-08-25T06:06:40;99721.59;;;25.90
15144;BMP180;7672;50.834;6.286;2022-08-25T06:09:08;99729.63;;;26.15
15144;BMP180;7672;50.834;6.286;2022-08-25T06:11:38;99723.38;;;26.32
15144;BMP180;7672;50.834;6.286;2022-08-25T06:14:08;99726.13;;;26.59
15144;BMP180;7672;50.834;6.286;2022-08-25T06:16:36;99729.06;;;26.81
15144;BMP180;7672;50.834;6.286;2022-08-25T06:19:09;99721.56;;;27.04
15144;BMP180;7672;50.834;6.286;2022-08-25T06:21:37;99722.72;;;27.26
15144;BMP180;7672;50.834;6.286;2022-08-25T06:24:06;99729.34;;;27.44
15144;BMP180;7672;50.834;6.286;2022-08-25T06:26:40;99726.16;;;27.67
15144;BMP180;7672;50.834;6.286;2022-08-25T06:29:07;99731.09;;;27.84
15144;BMP180;7672;50.834;6.286;2022-08-25T06:31:34;99733.41;;;28.01
15144;BMP180;7672;50.834;6.286;2022-08-25T06:34:02;99734.16;;;28.15
15144;BMP180;7672;50.834;6.286;2022-08-25T06:36:29;99747.09;;;28.29
15144;BMP180;7672;50.834;6.286;2022-08-25T06:38:56;99736.81;;;28.40
15144;BMP180;7672;50.834;6.286;2022-08-25T06:41:23;99735.91;;;28.53
15144;BMP180;7672;50.834;6.286;2022-08-25T06:44:03;99737.13;;;28.73
15144;BMP180;7672;50.834;6.286;2022-08-25T06:46:31;99738.72;;;28.87
15144;BMP180;7672;50.834;6.286;2022-08-25T06:49:05;99740.72;;;29.07
15144;BMP180;7672;50.834;6.286;2022-08-25T06:51:32;99740.97;;;29.28
15144;BMP180;7672;50.834;6.286;2022-08-25T06:54:03;99737.81;;;29.47
15144;BMP180;7672;50.834;6.286;2022-08-25T06:56:31;99733.44;;;29.71
15144;BMP180;7672;50.834;6.286;2022-08-25T06:59:00;99736.22;;;30.04
15144;BMP180;7672;50.834;6.286;2022-08-25T07:01:28;99736.41;;;30.35
15144;BMP180;7672;50.834;6.286;2022-08-25T07:04:00;99736.13;;;30.72
15144;BMP180;7672;50.834;6.286;2022-08-25T07:06:31;99734.00;;;31.21
15144;BMP180;7672;50.834;6.286;2022-08-25T07:08:58;99741.44;;;31.79
15144;BMP180;7672;50.834;6.286;2022-08-25T07:11:25;99735.72;;;32.36
15144;BMP180;7672;50.834;6.286;2022-08-25T07:13:52;99731.75;;;33.01
15144;BMP180;7672;50.834;6.286;2022-08-25T07:16:20;99730.97;;;33.68
15144;BMP180;7672;50.834;6.286;2022-08-25T07:18:48;99723.63;;;34.38
15144;BMP180;7672;50.834;6.286;2022-08-25T07:21:15;99722.06;;;35.00
15144;BMP180;7672;50.834;6.286;2022-08-25T07:23:46;99720.59;;;35.59
15144;BMP180;7672;50.834;6.286;2022-08-25T07:26:22;99726.03;;;36.17
15144;BMP180;7672;50.834;6.286;2022-08-25T07:29:34;99729.25;;;36.79
15144;BMP180;7672;50.834;6.286;2022-08-25T07:32:08;99727.88;;;37.42
15144;BMP180;7672;50.834;6.286;2022-08-25T07:34:36;99735.88;;;37.97
15144;BMP180;7672;50.834;6.286;2022-08-25T07:37:22;99729.09;;;38.58
15144;BMP180;7672;50.834;6.286;2022-08-25T07:40:14;99723.06;;;39.18
15144;BMP180;7672;50.834;6.286;2022-08-25T07:42:44;99722.50;;;39.61
15144;BMP180;7672;50.834;6.286;2022-08-25T07:45:12;99727.66;;;39.99
15144;BMP180;7672;50.834;6.286;2022-08-25T07:47:41;99727.47;;;40.23
15144;BMP180;7672;50.834;6.286;2022-08-25T07:50:11;99725.44;;;40.47
15144;BMP180;7672;50.834;6.286;2022-08-25T07:52:40;99733.97;;;40.72
15144;BMP180;7672;50.834;6.286;2022-08-25T07:55:08;99727.97;;;40.98
15144;BMP180;7672;50.834;6.286;2022-08-25T07:57:39;99719.00;;;41.28
15144;BMP180;7672;50.834;6.286;2022-08-25T08:00:09;99716.19;;;41.51
15144;BMP180;7672;50.834;6.286;2022-08-25T08:02:38;99724.59;;;41.75
15144;BMP180;7672;50.834;6.286;2022-08-25T08:05:06;99725.09;;;42.06
15144;BMP180;7672;50.834;6.286;2022-08-25T08:07:35;99727.16;;;42.31
15144;BMP180;7672;50.834;6.286;2022-08-25T08:10:13;99714.94;;;42.64
15144;BMP180;7672;50.834;6.286;2022-08-25T08:13:01;99711.97;;;42.92
15144;BMP180;7672;50.834;6.286;2022-08-25T08:15:29;99718.41;;;43.04
15144;BMP180;7672;50.834;6.286;2022-08-25T08:17:58;99720.09;;;43.12
15144;BMP180;7672;50.834;6.286;2022-08-25T08:20:25;99716.00;;;43.22
15144;BMP180;7672;50.834;6.286;2022-08-25T08:22:54;99709.28;;;43.33
15144;BMP180;7672;50.834;6.286;2022-08-25T08:25:22;99707.31;;;43.48
15144;BMP180;7672;50.834;6.286;2022-08-25T08:27:54;99705.66;;;43.47
15144;BMP180;7672;50.834;6.286;2022-08-25T08:30:23;99713.41;;;43.42
15144;BMP180;7672;50.834;6.286;2022-08-25T08:32:53;99712.56;;;43.28
15144;BMP180;7672;50.834;6.286;2022-08-25T08:35:39;99710.03;;;43.07
15144;BMP180;7672;50.834;6.286;2022-08-25T08:38:07;99702.78;;;42.95
15144;BMP180;7672;50.834;6.286;2022-08-25T08:40:59;99688.03;;;42.86
15144;BMP180;7672;50.834;6.286;2022-08-25T08:44:02;99692.03;;;43.03
15144;BMP180;7672;50.834;6.286;2022-08-25T08:53:28;99683.78;;;43.64
15144;BMP180;7672;50.834;6.286;2022-08-25T08:56:06;99691.59;;;43.91
15144;BMP180;7672;50.834;6.286;2022-08-25T08:58:48;99687.69;;;44.26
15144;BMP180;7672;50.834;6.286;2022-08-25T09:01:29;99681.91;;;44.55
15144;BMP180;7672;50.834;6.286;2022-08-25T09:04:29;99682.22;;;44.78
15144;BMP180;7672;50.834;6.286;2022-08-25T09:07:03;99682.53;;;45.07
15144;BMP180;7672;50.834;6.286;2022-08-25T09:09:39;99679.53;;;45.34
15144;BMP180;7672;50.834;6.286;2022-08-25T09:12:23;99672.19;;;45.54
15144;BMP180;7672;50.834;6.286;2022-08-25T09:25:25;99688.47;;;46.97
15144;BMP180;7672;50.834;6.286;2022-08-25T09:28:39;99678.44;;;47.10
15144;BMP180;7672;50.834;6.286;2022-08-25T09:31:39;99677.13;;;47.31
15144;BMP180;7672;50.834;6.286;2022-08-25T09:34:15;99684.31;;;47.59
15144;BMP180;7672;50.834;6.286;2022-08-25T09:36:43;99672.56;;;47.60
15144;BMP180;7672;50.834;6.286;2022-08-25T09:39:13;99681.63;;;47.59
15144;BMP180;7672;50.834;6.286;2022-08-25T09:41:53;99681.41;;;47.61
15144;BMP180;7672;50.834;6.286;2022-08-25T09:44:39;99671.28;;;47.63
15144;BMP180;7672;50.834;6.286;2022-08-25T09:49:55;99674.59;;;47.88
15144;BMP180;7672;50.834;6.286;2022-08-25T09:52:38;99658.25;;;48.01
15144;BMP180;7672;50.834;6.286;2022-08-25T10:03:20;99659.59;;;48.83
15144;BMP180;7672;50.834;6.286;2022-08-25T10:06:06;99654.75;;;48.96
15144;BMP180;7672;50.834;6.286;2022-08-25T10:08:58;99649.88;;;48.93
15144;BMP180;7672;50.834;6.286;2022-08-25T10:11:45;99644.50;;;48.93
15144;BMP180;7672;50.834;6.286;2022-08-25T10:17:25;99643.41;;;48.78
15144;BMP180;7672;50.834;6.286;2022-08-25T10:20:20;99639.13;;;48.54
15144;BMP180;7672;50.834;6.286;2022-08-25T10:22:49;99644.94;;;48.40
15144;BMP180;7672;50.834;6.286;2022-08-25T10:25:28;99637.78;;;48.29
15144;BMP180;7672;50.834;6.286;2022-08-25T10:28:31;99638.25;;;48.15
15144;BMP180;7672;50.834;6.286;2022-08-25T10:31:39;99632.88;;;48.15
15144;BMP180;7672;50.834;6.286;2022-08-25T10:34:48;99630.53;;;48.07
15144;BMP180;7672;50.834;6.286;2022-08-25T10:40:32;99615.75;;;48.04
15144;BMP180;7672;50.834;6.286;2022-08-25T10:46:14;99614.22;;;48.19
15144;BMP180;7672;50.834;6.286;2022-08-25T10:51:45;99601.44;;;48.10
15144;BMP180;7672;50.834;6.286;2022-08-25T10:57:19;99594.66;;;48.19
15144;BMP180;7672;50.834;6.286;2022-08-25T11:00:11;99582.88;;;48.20
15144;BMP180;7672;50.834;6.286;2022-08-25T11:06:18;99582.91;;;47.97
15144;BMP180;7672;50.834;6.286;2022-08-25T11:09:01;99577.97;;;48.06
15144;BMP180;7672;50.834;6.286;2022-08-25T11:12:00;99571.22;;;48.26
15144;BMP180;7672;50.834;6.286;2022-08-25T11:14:46;99574.03;;;48.59
15144;BMP180;7672;50.834;6.286;2022-08-25T11:17:46;99566.28;;;48.74
15144;BMP180;7672;50.834;6.286;2022-08-25T11:20:22;99566.66;;;48.66
15144;BMP180;7672;50.834;6.286;2022-08-25T11:23:25;99557.38;;;48.18
15144;BMP180;7672;50.834;6.286;2022-08-25T11:26:06;99561.47;;;47.63
15144;BMP180;7672;50.834;6.286;2022-08-25T11:28:51;99552.19;;;47.13
15144;BMP180;7672;50.834;6.286;2022-08-25T11:31:21;99559.34;;;46.90
15144;BMP180;7672;50.834;6.286;2022-08-25T11:33:50;99555.09;;;46.71
15144;BMP180;7672;50.834;6.286;2022-08-25T11:36:36;99546.94;;;46.48
15144;BMP180;7672;50.834;6.286;2022-08-25T11:45:50;99542.34;;;45.35
15144;BMP180;7672;50.834;6.286;2022-08-25T11:48:40;99535.41;;;45.34
15144;BMP180;7672;50.834;6.286;2022-08-25T11:57:05;99516.91;;;45.08
15144;BMP180;7672;50.834;6.286;2022-08-25T12:02:48;99526.53;;;44.35
15144;BMP180;7672;50.834;6.286;2022-08-25T12:11:03;99512.94;;;42.77
15144;BMP180;7672;50.834;6.286;2022-08-25T12:14:46;99509.91;;;42.27
15144;BMP180;7672;50.834;6.286;2022-08-25T12:30:30;99503.66;;;40.77
15144;BMP180;7672;50.834;6.286;2022-08-25T12:35:50;99498.03;;;40.51
15144;BMP180;7672;50.834;6.286;2022-08-25T12:38:45;99497.81;;;40.32
15144;BMP180;7672;50.834;6.286;2022-08-25T12:41:22;99487.97;;;40.26
15144;BMP180;7672;50.834;6.286;2022-08-25T12:43:53;99483.66;;;40.25
15144;BMP180;7672;50.834;6.286;2022-08-25T12:46:37;99491.81;;;40.23
15144;BMP180;7672;50.834;6.286;2022-08-25T12:51:51;99478.03;;;40.28
15144;BMP180;7672;50.834;6.286;2022-08-25T12:54:45;99484.38;;;40.33
15144;BMP180;7672;50.834;6.286;2022-08-25T12:57:36;99494.69;;;40.42
15144;BMP180;7672;50.834;6.286;2022-08-25T13:00:20;99485.56;;;40.45
15144;BMP180;7672;50.834;6.286;2022-08-25T13:12:16;99479.41;;;39.80
15144;BMP180;7672;50.834;6.286;2022-08-25T13:14:56;99476.75;;;39.80
15144;BMP180;7672;50.834;6.286;2022-08-25T13:17:33;99483.16;;;39.86
15144;BMP180;7672;50.834;6.286;2022-08-25T13:20:26;99473.09;;;39.81
15144;BMP180;7672;50.834;6.286;2022-08-25T13:22:59;99474.00;;;39.74
15144;BMP180;7672;50.834;6.286;2022-08-25T13:25:29;99472.63;;;39.64
15144;BMP180;7672;50.834;6.286;2022-08-25T13:28:03;99456.75;;;39.49
15144;BMP180;7672;50.834;6.286;2022-08-25T13:30:35;99454.91;;;39.35
15144;BMP180;7672;50.834;6.286;2022-08-25T13:33:18;99462.34;;;39.17
15144;BMP180;7672;50.834;6.286;2022-08-25T13:35:50;99456.03;;;39.04
15144;BMP180;7672;50.834;6.286;2022-08-25T13:38:38;99460.69;;;38.94
15144;BMP180;7672;50.834;6.286;2022-08-25T13:41:07;99450.72;;;38.82
15144;BMP180;7672;50.834;6.286;2022-08-25T13:43:37;99449.44;;;38.78
15144;BMP180;7672;50.834;6.286;2022-08-25T13:46:06;99450.28;;;38.78
15144;BMP180;7672;50.834;6.286;2022-08-25T13:48:41;99448.31;;;38.95
15144;BMP180;7672;50.834;6.286;2022-08-25T13:51:30;99438.91;;;39.14
15144;BMP180;7672;50.834;6.286;2022-08-25T13:54:01;99430.81;;;39.30
15144;BMP180;7672;50.834;6.286;2022-08-25T13:56:36;99443.34;;;39.51
15144;BMP180;7672;50.834;6.286;2022-08-25T13:59:34;99440.88;;;39.64
15144;BMP180;7672;50.834;6.286;2022-08-25T14:02:09;99438.69;;;39.67
15144;BMP180;7672;50.834;6.286;2022-08-25T14:04:47;99438.63;;;39.61
15144;BMP180;7672;50.834;6.286;2022-08-25T14:12:42;99436.50;;;39.56
15144;BMP180;7672;50.834;6.286;2022-08-25T14:15:26;99428.75;;;39.55
15144;BMP180;7672;50.834;6.286;2022-08-25T14:18:08;99426.03;;;39.48
15144;BMP180;7672;50.834;6.286;2022-08-25T14:20:47;99421.78;;;39.39
15144;BMP180;7672;50.834;6.286;2022-08-25T14:23:23;99421.06;;;39.31
15144;BMP180;7672;50.834;6.286;2022-08-25T14:25:55;99423.78;;;39.23
15144;BMP180;7672;50.834;6.286;2022-08-25T14:28:27;99425.34;;;39.17
15144;BMP180;7672;50.834;6.286;2022-08-25T14:31:10;99424.88;;;39.14
15144;BMP180;7672;50.834;6.286;2022-08-25T14:33:51;99420.75;;;39.11
15144;BMP180;7672;50.834;6.286;2022-08-25T14:36:19;99430.69;;;39.09
15144;BMP180;7672;50.834;6.286;2022-08-25T14:38:46;99414.72;;;39.03
15144;BMP180;7672;50.834;6.286;2022-08-25T14:41:22;99410.63;;;39.01
15144;BMP180;7672;50.834;6.286;2022-08-25T14:43:49;99410.97;;;38.98
15144;BMP180;7672;50.834;6.286;2022-08-25T14:46:24;99411.47;;;38.93
15144;BMP180;7672;50.834;6.286;2022-08-25T14:48:59;99406.56;;;38.90
15144;BMP180;7672;50.834;6.286;2022-08-25T14:51:31;99409.22;;;38.90
15144;BMP180;7672;50.834;6.286;2022-08-25T14:54:02;99406.38;;;38.92
15144;BMP180;7672;50.834;6.286;2022-08-25T14:56:31;99405.56;;;38.91
15144;BMP180;7672;50.834;6.286;2022-08-25T14:58:59;99406.28;;;38.85
15144;BMP180;7672;50.834;6.286;2022-08-25T15:01:29;99407.28;;;38.84
15144;BMP180;7672;50.834;6.286;2022-08-25T15:04:09;99402.34;;;38.81
15144;BMP180;7672;50.834;6.286;2022-08-25T15:06:43;99410.28;;;38.81
15144;BMP180;7672;50.834;6.286;2022-08-25T15:09:15;99395.09;;;38.83
15144;BMP180;7672;50.834;6.286;2022-08-25T15:11:46;99405.75;;;38.90
15144;BMP180;7672;50.834;6.286;2022-08-25T15:14:19;99397.63;;;38.91
15144;BMP180;7672;50.834;6.286;2022-08-25T15:17:00;99401.38;;;38.97
15144;BMP180;7672;50.834;6.286;2022-08-25T15:19:33;99396.94;;;38.97
15144;BMP180;7672;50.834;6.286;2022-08-25T15:22:00;99400.53;;;39.18
15144;BMP180;7672;50.834;6.286;2022-08-25T15:24:27;99395.22;;;39.04
15144;BMP180;7672;50.834;6.286;2022-08-25T15:27:02;99394.94;;;38.99
15144;BMP180;7672;50.834;6.286;2022-08-25T15:29:38;99397.63;;;38.91
15144;BMP180;7672;50.834;6.286;2022-08-25T15:32:07;99400.72;;;38.80
15144;BMP180;7672;50.834;6.286;2022-08-25T15:34:35;99391.41;;;38.70
15144;BMP180;7672;50.834;6.286;2022-08-25T15:37:14;99401.91;;;38.55
15144;BMP180;7672;50.834;6.286;2022-08-25T15:39:44;99398.19;;;38.42
15144;BMP180;7672;50.834;6.286;2022-08-25T15:42:16;99388.38;;;38.28
15144;BMP180;7672;50.834;6.286;2022-08-25T15:44:43;99391.25;;;38.19
15144;BMP180;7672;50.834;6.286;2022-08-25T15:47:20;99387.69;;;38.04
15144;BMP180;7672;50.834;6.286;2022-08-25T15:49:48;99394.19;;;37.93
15144;BMP180;7672;50.834;6.286;2022-08-25T15:52:16;99392.72;;;37.83
15144;BMP180;7672;50.834;6.286;2022-08-25T15:54:43;99388.50;;;37.74
15144;BMP180;7672;50.834;6.286;2022-08-25T15:57:17;99390.16;;;37.67
15144;BMP180;7672;50.834;6.286;2022-08-25T15:59:50;99388.53;;;37.58
15144;BMP180;7672;50.834;6.286;2022-08-25T16:02:19;99390.19;;;37.51
15144;BMP180;7672;50.834;6.286;2022-08-25T16:04:47;99391.88;;;37.44
15144;BMP180;7672;50.834;6.286;2022-08-25T16:07:14;99388.09;;;37.39
15144;BMP180;7672;50.834;6.286;2022-08-25T16:09:41;99397.34;;;37.35
15144;BMP180;7672;50.834;6.286;2022-08-25T16:12:09;99386.66;;;37.28
15144;BMP180;7672;50.834;6.286;2022-08-25T16:14:39;99393.06;;;37.26
15144;BMP180;7672;50.834;6.286;2022-08-25T16:17:06;99393.56;;;37.21
15144;BMP180;7672;50.834;6.286;2022-08-25T16:19:33;99385.00;;;37.19
15144;BMP180;7672;50.834;6.286;2022-08-25T16:22:05;99379.41;;;37.14
15144;BMP180;7672;50.834;6.286;2022-08-25T16:24:41;99385.19;;;37.10
15144;BMP180;7672;50.834;6.286;2022-08-25T16:27:12;99382.38;;;37.04
15144;BMP180;7672;50.834;6.286;2022-08-25T16:29:48;99376.16;;;36.97
15144;BMP180;7672;50.834;6.286;2022-08-25T16:32:18;99381.59;;;36.95
15144;BMP180;7672;50.834;6.286;2022-08-25T16:34:47;99392.59;;;36.91
15144;BMP180;7672;50.834;6.286;2022-08-25T16:37:14;99388.03;;;36.85
15144;BMP180;7672;50.834;6.286;2022-08-25T16:39:41;99386.00;;;36.79
15144;BMP180;7672;50.834;6.286;2022-08-25T16:42:13;99386.03;;;36.71